Time;durP1;ratioP1;P1;durP2;ratioP2;P2;SDS_P1;SDS_P2;PMS_P1;PMS_P2;Temp;Humidity;BMP_temperature;BMP_pressure;BME280_temperature;BME280_humidity;BME280_pressure;Samples;Min_cycle;Max_cycle;Signal;HPM_P1;HPM_P2
2023/11/12 00:01:21;;;;;;;9.40;4.40;;;6.80;99.90;;;;;;4805666;29;20202;-82
2023/11/12 00:03:49;;;;;;;7.50;4.47;;;6.80;99.90;;;;;;4790370;29;20719;-83
2023/11/12 00:06:14;;;;;;;10.10;4.60;;;6.80;99.90;;;;;;4806882;29;20194;-82
2023/11/12 00:08:40;;;;;;;8.23;4.50;;;6.80;99.90;;;;;;4790495;29;20247;-82
2023/11/12 00:11:07;;;;;;;7.73;4.40;;;6.80;99.90;;;;;;4796151;29;20202;-82
2023/11/12 00:13:33;;;;;;;6.50;4.63;;;6.80;99.90;;;;;;4806236;29;20300;-82
2023/11/12 00:15:59;;;;;;;8.70;4.50;;;6.80;99.90;;;;;;4789266;29;20627;-82
2023/11/12 00:18:24;;;;;;;6.57;4.30;;;6.80;99.90;;;;;;4804145;29;20194;-81
2023/11/12 00:20:51;;;;;;;9.40;5.13;;;6.80;99.90;;;;;;4805066;29;20202;-82
2023/11/12 00:23:18;;;;;;;10.73;5.67;;;6.80;99.90;;;;;;4788267;29;20702;-83
2023/11/12 00:25:44;;;;;;;6.93;5.23;;;6.80;99.90;;;;;;4805302;29;20202;-83
2023/11/12 00:28:09;;;;;;;9.00;5.60;;;6.90;99.90;;;;;;4805185;29;20225;-81
2023/11/12 00:30:35;;;;;;;10.10;5.50;;;6.80;99.90;;;;;;4789424;29;20209;-83
2023/11/12 00:33:04;;;;;;;12.17;5.97;;;6.80;99.90;;;;;;4804882;29;20198;-82
2023/11/12 00:35:30;;;;;;;6.80;5.20;;;6.80;99.90;;;;;;4805779;29;20202;-82
2023/11/12 00:37:56;;;;;;;8.37;5.70;;;6.90;99.90;;;;;;4789474;29;20642;-82
2023/11/12 00:40:22;;;;;;;9.20;5.37;;;6.90;99.90;;;;;;4788536;29;20228;-82
2023/11/12 00:42:48;;;;;;;13.87;5.97;;;6.80;99.90;;;;;;4803845;29;20232;-81
2023/11/12 00:45:13;;;;;;;9.27;5.87;;;6.90;99.90;;;;;;4788791;29;20587;-80
2023/11/12 00:47:41;;;;;;;11.70;5.93;;;6.90;99.90;;;;;;4789360;29;20245;-82
2023/11/12 00:50:08;;;;;;;14.87;5.70;;;6.90;99.90;;;;;;4805825;29;20218;-81
2023/11/12 00:52:34;;;;;;;11.40;6.00;;;6.90;99.90;;;;;;4801857;29;20222;-82
2023/11/12 00:55:01;;;;;;;9.30;6.07;;;6.90;99.90;;;;;;4805489;29;20190;-81
2023/11/12 00:57:27;;;;;;;8.97;6.03;;;6.90;99.90;;;;;;4788963;29;20321;-82
2023/11/12 00:59:52;;;;;;;12.33;6.57;;;6.90;99.90;;;;;;4805238;29;20301;-80
2023/11/12 01:02:18;;;;;;;15.87;6.20;;;6.90;99.90;;;;;;4806215;29;20198;-80
2023/11/12 01:04:44;;;;;;;8.93;6.63;;;6.90;99.90;;;;;;4806184;29;20234;-81
2023/11/12 01:07:10;;;;;;;10.70;6.53;;;6.90;99.90;;;;;;4805853;29;20226;-81
2023/11/12 01:09:37;;;;;;;11.70;6.20;;;6.90;99.90;;;;;;4806221;29;20199;-82
2023/11/12 01:12:03;;;;;;;6.77;5.50;;;6.90;99.90;;;;;;4806374;29;20198;-81
2023/11/12 01:14:28;;;;;;;8.40;5.47;;;6.90;99.90;;;;;;4805505;29;20191;-80
2023/11/12 01:16:55;;;;;;;8.87;6.13;;;6.90;99.90;;;;;;4806304;29;20271;-80
2023/11/12 01:19:21;;;;;;;10.20;7.30;;;6.90;99.90;;;;;;4790017;29;20293;-79
2023/11/12 01:21:46;;;;;;;12.57;7.20;;;6.90;99.90;;;;;;4806257;29;20286;-80
2023/11/12 01:24:12;;;;;;;11.27;7.27;;;6.90;99.90;;;;;;4806521;29;20187;-80
2023/11/12 01:26:38;;;;;;;12.67;6.83;;;6.90;99.90;;;;;;4809554;29;20253;-80
2023/11/12 01:29:04;;;;;;;12.27;6.60;;;6.90;99.90;;;;;;4809599;29;20218;-79
2023/11/12 01:31:30;;;;;;;11.97;7.27;;;6.90;99.90;;;;;;4808967;29;20269;-80
2023/11/12 01:33:56;;;;;;;12.93;7.00;;;6.90;99.90;;;;;;4809423;29;20186;-80
2023/11/12 01:36:22;;;;;;;9.50;7.00;;;6.90;99.90;;;;;;4809506;29;20195;-80
2023/11/12 01:38:48;;;;;;;12.50;7.53;;;6.90;99.90;;;;;;4809478;29;20204;-80
2023/11/12 01:41:14;;;;;;;11.07;7.23;;;6.90;99.90;;;;;;4809245;29;20195;-81
2023/11/12 01:43:41;;;;;;;15.40;8.17;;;6.90;99.90;;;;;;4809542;29;20199;-80
2023/11/12 01:46:07;;;;;;;12.87;8.00;;;6.90;99.90;;;;;;4807812;29;20202;-79
2023/11/12 01:48:34;;;;;;;11.10;8.23;;;6.90;99.90;;;;;;4809280;29;20278;-79
2023/11/12 01:51:04;;;;;;;14.10;8.40;;;6.90;99.90;;;;;;4808113;29;20190;-81
2023/11/12 01:53:32;;;;;;;13.47;8.20;;;6.90;99.90;;;;;;4801015;29;20205;-81
2023/11/12 01:55:59;;;;;;;15.37;9.50;;;6.90;99.90;;;;;;4809462;29;20194;-81
2023/11/12 01:58:25;;;;;;;17.07;9.20;;;6.90;99.90;;;;;;4809587;29;20190;-80
2023/11/12 02:00:51;;;;;;;13.80;10.00;;;6.90;99.90;;;;;;4808914;29;20584;-79
2023/11/12 02:03:19;;;;;;;12.27;9.90;;;6.90;99.90;;;;;;4808700;29;20324;-80
2023/11/12 02:05:45;;;;;;;11.63;10.00;;;6.90;99.90;;;;;;4809087;29;20660;-80
2023/11/12 02:08:12;;;;;;;14.20;9.67;;;6.90;99.90;;;;;;4808674;29;20226;-80
2023/11/12 02:10:38;;;;;;;18.77;11.20;;;6.90;99.90;;;;;;4808853;29;20183;-80
2023/11/12 02:13:05;;;;;;;17.80;11.60;;;6.90;99.90;;;;;;4808807;29;20336;-80
2023/11/12 02:15:31;;;;;;;19.77;11.90;;;6.90;99.90;;;;;;4808642;29;20187;-81
2023/11/12 02:17:59;;;;;;;17.87;12.07;;;6.90;99.90;;;;;;4808778;29;20706;-80
2023/11/12 02:20:26;;;;;;;18.27;12.90;;;6.90;99.90;;;;;;4808866;29;20634;-81
2023/11/12 02:22:53;;;;;;;17.50;12.27;;;6.90;99.90;;;;;;4808683;29;20631;-81
2023/11/12 02:25:19;;;;;;;18.20;12.70;;;6.90;99.90;;;;;;4808524;29;20197;-81
2023/11/12 02:27:45;;;;;;;20.03;12.43;;;6.80;99.90;;;;;;4808134;29;20218;-80
2023/11/12 02:30:11;;;;;;;18.50;11.53;;;6.80;99.90;;;;;;4808608;29;20229;-81
2023/11/12 02:32:38;;;;;;;20.80;12.97;;;6.90;99.90;;;;;;4808541;29;20202;-82
2023/11/12 02:35:07;;;;;;;18.90;13.03;;;6.90;99.90;;;;;;4791834;29;20662;-79
2023/11/12 02:37:33;;;;;;;21.07;15.43;;;6.90;99.90;;;;;;4808321;29;20654;-80
2023/11/12 02:39:58;;;;;;;20.07;16.00;;;6.90;99.90;;;;;;4808553;29;20201;-81
2023/11/12 02:42:25;;;;;;;23.97;17.67;;;6.90;99.90;;;;;;4792094;29;20210;-80
2023/11/12 02:44:51;;;;;;;22.33;17.17;;;6.90;99.90;;;;;;4808127;29;20209;-80
2023/11/12 02:47:17;;;;;;;21.37;17.00;;;6.90;99.90;;;;;;4808220;29;20666;-80
2023/11/12 02:49:52;;;;;;;25.07;18.10;;;6.80;99.90;;;;;;4807725;29;20274;-81
2023/11/12 02:52:18;;;;;;;25.57;17.97;;;6.80;99.90;;;;;;4808126;29;20202;-80
2023/11/12 02:54:43;;;;;;;24.50;18.00;;;6.80;99.90;;;;;;4808216;29;20194;-80
2023/11/12 02:57:10;;;;;;;21.73;17.23;;;6.80;99.90;;;;;;4808047;29;20205;-80
2023/11/12 02:59:35;;;;;;;25.20;17.97;;;6.80;99.90;;;;;;4808271;29;20213;-80
2023/11/12 03:02:01;;;;;;;24.90;18.30;;;6.90;99.90;;;;;;4808065;29;20622;-80
2023/11/12 03:04:27;;;;;;;27.50;18.77;;;6.80;99.90;;;;;;4807685;29;20249;-81
2023/11/12 03:06:53;;;;;;;24.50;19.47;;;6.90;99.90;;;;;;4807873;29;20226;-80
2023/11/12 03:09:19;;;;;;;33.80;19.90;;;6.80;99.90;;;;;;4807937;29;20205;-81
2023/11/12 03:11:46;;;;;;;26.33;18.67;;;6.80;99.90;;;;;;4807873;29;20237;-81
2023/11/12 03:14:12;;;;;;;29.00;19.77;;;6.90;99.90;;;;;;4807479;29;20198;-81
2023/11/12 03:16:38;;;;;;;26.70;20.47;;;6.80;99.90;;;;;;4791356;29;20293;-81
2023/11/12 03:19:04;;;;;;;23.53;19.23;;;6.80;99.90;;;;;;4807113;29;20273;-80
2023/11/12 03:21:30;;;;;;;25.13;19.60;;;6.80;99.90;;;;;;4800410;29;20722;-80
2023/11/12 03:23:55;;;;;;;28.53;19.93;;;6.80;99.90;;;;;;4791465;29;20194;-80
2023/11/12 03:26:21;;;;;;;27.07;18.97;;;6.80;99.90;;;;;;4807442;29;20203;-80
2023/11/12 03:28:47;;;;;;;29.83;19.93;;;6.80;99.90;;;;;;4791132;29;20714;-80
2023/11/12 03:31:13;;;;;;;29.33;18.57;;;6.80;99.90;;;;;;4807289;29;20194;-80
2023/11/12 03:33:39;;;;;;;27.77;19.57;;;6.80;99.90;;;;;;4807637;29;20209;-80
2023/11/12 03:36:05;;;;;;;28.53;20.20;;;6.80;99.90;;;;;;4807408;29;20626;-80
2023/11/12 03:38:31;;;;;;;25.70;19.47;;;6.80;99.90;;;;;;4791206;29;20589;-80
2023/11/12 03:40:57;;;;;;;25.20;19.13;;;6.70;99.90;;;;;;4806929;29;20198;-80
2023/11/12 03:43:23;;;;;;;28.97;20.57;;;6.70;99.90;;;;;;4807146;29;20197;-80
2023/11/12 03:45:49;;;;;;;33.90;18.80;;;6.70;99.90;;;;;;4807004;29;20530;-80
2023/11/12 03:48:14;;;;;;;30.90;19.73;;;6.70;99.90;;;;;;4805157;29;20234;-80
2023/11/12 03:50:40;;;;;;;30.23;19.63;;;6.70;99.90;;;;;;4805937;29;20286;-80
2023/11/12 03:53:06;;;;;;;25.90;19.47;;;6.70;99.90;;;;;;4807143;29;20562;-79
2023/11/12 03:55:32;;;;;;;25.13;19.83;;;6.70;99.90;;;;;;4807333;29;20197;-80
2023/11/12 03:57:58;;;;;;;30.57;19.30;;;6.70;99.90;;;;;;4807101;29;20218;-79
2023/11/12 04:00:26;;;;;;;26.73;19.70;;;6.70;99.90;;;;;;4805448;29;20222;-80
2023/11/12 04:02:52;;;;;;;27.03;19.30;;;6.70;99.90;;;;;;4806692;29;20273;-80
2023/11/12 04:05:18;;;;;;;28.00;19.90;;;6.70;99.90;;;;;;4806776;29;20323;-79
2023/11/12 04:07:44;;;;;;;26.83;19.23;;;6.70;99.90;;;;;;4806970;29;20559;-79
2023/11/12 04:10:11;;;;;;;29.13;19.47;;;6.70;99.90;;;;;;4806839;29;20195;-79
2023/11/12 04:12:37;;;;;;;28.50;19.17;;;6.70;99.90;;;;;;4805638;29;20676;-80
2023/11/12 04:15:03;;;;;;;26.07;18.53;;;6.60;99.90;;;;;;4806643;29;20183;-81
2023/11/12 04:17:30;;;;;;;24.47;18.33;;;6.60;99.90;;;;;;4806592;29;20191;-81
2023/11/12 04:19:57;;;;;;;26.67;17.50;;;6.60;99.90;;;;;;4806803;29;20186;-81
2023/11/12 04:22:24;;;;;;;23.77;16.73;;;6.60;99.90;;;;;;4806761;29;20665;-81
2023/11/12 04:24:53;;;;;;;21.47;17.27;;;6.60;99.90;;;;;;4790510;29;20542;-81
2023/11/12 04:27:20;;;;;;;27.30;18.17;;;6.60;99.90;;;;;;4806525;29;20595;-81
2023/11/12 04:29:47;;;;;;;23.17;16.97;;;6.60;99.90;;;;;;4806851;29;20700;-81
2023/11/12 04:32:12;;;;;;;25.40;18.07;;;6.60;99.90;;;;;;4805752;29;20291;-80
2023/11/12 04:34:39;;;;;;;21.77;17.20;;;6.50;99.90;;;;;;4806560;29;20281;-80
2023/11/12 04:37:05;;;;;;;24.27;17.10;;;6.50;99.90;;;;;;4806649;29;20195;-81
2023/11/12 04:39:31;;;;;;;19.33;15.83;;;6.50;99.90;;;;;;4798231;29;20277;-81
2023/11/12 04:41:57;;;;;;;21.27;16.03;;;6.50;99.90;;;;;;4806682;29;20200;-80
2023/11/12 04:44:23;;;;;;;25.30;16.13;;;6.50;99.90;;;;;;4806397;29;20194;-79
2023/11/12 04:46:49;;;;;;;23.03;16.30;;;6.50;99.90;;;;;;4805773;29;20226;-80
2023/11/12 04:49:15;;;;;;;21.47;15.10;;;6.40;99.90;;;;;;4806490;29;20624;-80
2023/11/12 04:51:40;;;;;;;24.87;16.17;;;6.40;99.90;;;;;;4806885;29;20580;-79
2023/11/12 04:54:06;;;;;;;22.10;15.83;;;6.40;99.90;;;;;;4806057;29;20222;-79
2023/11/12 04:56:32;;;;;;;23.43;15.77;;;6.30;99.90;;;;;;4806430;29;20191;-80
2023/11/12 04:58:58;;;;;;;28.10;16.27;;;6.30;99.90;;;;;;4808446;29;20188;-79
2023/11/12 05:01:24;;;;;;;23.07;15.87;;;6.30;99.90;;;;;;4809820;29;20198;-79
2023/11/12 05:03:50;;;;;;;19.67;15.40;;;6.30;99.90;;;;;;4793520;29;20302;-80
2023/11/12 05:06:16;;;;;;;23.27;15.47;;;6.30;99.90;;;;;;4810011;29;20198;-80
2023/11/12 05:08:42;;;;;;;21.80;16.03;;;6.30;99.90;;;;;;4809886;29;20222;-80
2023/11/12 05:11:08;;;;;;;22.30;15.47;;;6.30;99.90;;;;;;4809917;29;20191;-80
2023/11/12 05:13:36;;;;;;;22.60;15.87;;;6.20;99.90;;;;;;4809784;29;20254;-81
2023/11/12 05:16:02;;;;;;;26.27;15.50;;;6.20;99.90;;;;;;4808334;29;20202;-82
2023/11/12 05:18:29;;;;;;;19.80;16.23;;;6.20;99.90;;;;;;4809671;29;20191;-81
2023/11/12 05:20:55;;;;;;;19.37;15.20;;;6.20;99.90;;;;;;4809851;29;20277;-80
2023/11/12 05:23:21;;;;;;;23.97;15.93;;;6.20;99.90;;;;;;4809630;29;20237;-80
2023/11/12 05:25:47;;;;;;;22.30;14.87;;;6.20;99.90;;;;;;4810027;29;20226;-79
2023/11/12 05:28:12;;;;;;;18.87;14.63;;;6.20;99.90;;;;;;4809754;29;20214;-79
2023/11/12 05:30:39;;;;;;;20.93;15.07;;;6.20;99.90;;;;;;4809360;29;20242;-80
2023/11/12 05:33:05;;;;;;;19.10;14.33;;;6.10;99.90;;;;;;4809512;29;20222;-80
2023/11/12 05:35:30;;;;;;;19.50;14.30;;;6.20;99.90;;;;;;4809499;29;20191;-80
2023/11/12 05:37:56;;;;;;;20.00;14.03;;;6.10;99.90;;;;;;4793186;29;20206;-79
2023/11/12 05:40:22;;;;;;;20.17;15.00;;;6.10;99.90;;;;;;4809425;29;20197;-79
2023/11/12 05:42:48;;;;;;;18.97;13.97;;;6.10;99.90;;;;;;4809349;29;20191;-79
2023/11/12 05:45:14;;;;;;;16.17;13.63;;;6.10;99.90;;;;;;4808821;29;20585;-80
2023/11/12 05:47:40;;;;;;;19.30;14.13;;;6.10;99.90;;;;;;4809178;29;20225;-81
2023/11/12 05:50:06;;;;;;;20.57;14.23;;;6.00;99.90;;;;;;4809236;29;20194;-81
2023/11/12 05:52:32;;;;;;;16.47;12.67;;;6.00;99.90;;;;;;4809261;29;20263;-81
2023/11/12 05:54:58;;;;;;;20.43;13.03;;;6.00;99.90;;;;;;4792898;29;20206;-80
2023/11/12 05:57:24;;;;;;;20.33;12.70;;;5.90;99.90;;;;;;4809033;29;20190;-81
2023/11/12 05:59:49;;;;;;;14.50;11.53;;;5.90;99.90;;;;;;4807485;29;20275;-79
2023/11/12 06:02:15;;;;;;;15.77;11.70;;;5.80;99.90;;;;;;4807851;29;20234;-80
2023/11/12 06:04:41;;;;;;;19.83;12.13;;;5.80;99.90;;;;;;4808905;29;20249;-80
2023/11/12 06:07:07;;;;;;;15.87;12.70;;;5.80;99.90;;;;;;4808868;29;20251;-79
2023/11/12 06:09:32;;;;;;;15.40;11.67;;;5.70;99.90;;;;;;4809020;29;20206;-79
2023/11/12 06:12:00;;;;;;;14.13;10.90;;;5.80;99.90;;;;;;4808204;29;20195;-79
2023/11/12 06:14:25;;;;;;;12.50;10.57;;;5.70;99.90;;;;;;4792373;29;20207;-79
2023/11/12 06:16:51;;;;;;;18.13;11.80;;;5.70;99.90;;;;;;4808539;29;20251;-79
2023/11/12 06:19:17;;;;;;;14.27;10.00;;;5.70;99.90;;;;;;4808825;29;20623;-79
2023/11/12 06:21:42;;;;;;;15.03;11.03;;;5.60;99.90;;;;;;4808692;29;20209;-79
2023/11/12 06:24:09;;;;;;;15.07;10.47;;;5.50;99.90;;;;;;4808640;29;20206;-79
2023/11/12 06:26:34;;;;;;;15.87;10.20;;;5.50;99.90;;;;;;4808479;29;20654;-79
2023/11/12 06:29:00;;;;;;;12.37;10.33;;;5.50;99.90;;;;;;4792798;29;20243;-80
2023/11/12 06:31:26;;;;;;;14.03;10.27;;;5.40;99.90;;;;;;4808495;29;20227;-80
2023/11/12 06:33:52;;;;;;;12.63;10.30;;;5.40;99.90;;;;;;4808551;29;20183;-80
2023/11/12 06:36:17;;;;;;;14.10;10.70;;;5.40;99.90;;;;;;4808430;29;20194;-81
2023/11/12 06:38:43;;;;;;;13.30;10.13;;;5.30;99.90;;;;;;4808477;29;20194;-79
2023/11/12 06:41:09;;;;;;;12.13;10.23;;;5.30;99.90;;;;;;4808346;29;20790;-79
2023/11/12 06:43:36;;;;;;;13.93;9.67;;;5.30;99.90;;;;;;4814442;29;20198;-79
2023/11/12 06:46:04;;;;;;;14.90;9.73;;;5.40;99.90;;;;;;4808157;29;20195;-79
2023/11/12 06:48:30;;;;;;;12.37;10.13;;;5.40;99.90;;;;;;4792002;29;20313;-79
2023/11/12 06:50:56;;;;;;;14.57;9.93;;;5.40;99.90;;;;;;4792114;29;20304;-80
2023/11/12 06:53:21;;;;;;;11.50;8.77;;;5.40;99.90;;;;;;4808106;29;20619;-78
2023/11/12 06:55:47;;;;;;;12.67;9.37;;;5.40;99.90;;;;;;4808237;29;20205;-79
2023/11/12 06:58:13;;;;;;;10.97;9.00;;;5.40;99.90;;;;;;4808483;29;20195;-79
2023/11/12 07:00:39;;;;;;;9.93;8.20;;;5.40;99.90;;;;;;4808122;29;20190;-80
2023/11/12 07:03:05;;;;;;;10.90;8.83;;;5.40;99.90;;;;;;4808106;29;20242;-81
2023/11/12 07:05:32;;;;;;;11.43;8.40;;;5.40;99.90;;;;;;4806764;29;20247;-81
2023/11/12 07:07:58;;;;;;;14.57;9.30;;;5.40;99.90;;;;;;4807984;29;20229;-81
2023/11/12 07:10:24;;;;;;;12.30;8.63;;;5.50;99.90;;;;;;4807801;29;20622;-80
2023/11/12 07:12:50;;;;;;;10.80;8.73;;;5.50;99.90;;;;;;4807985;29;20237;-81
2023/11/12 07:15:16;;;;;;;21.10;10.30;;;5.50;99.90;;;;;;4807578;29;20611;-81
2023/11/12 07:17:44;;;;;;;10.83;8.47;;;5.60;99.90;;;;;;4807762;29;20197;-81
2023/11/12 07:20:11;;;;;;;14.67;9.10;;;5.60;99.90;;;;;;4791271;29;20236;-79
2023/11/12 07:22:37;;;;;;;10.53;8.63;;;5.70;99.90;;;;;;4806925;29;20194;-80
2023/11/12 07:25:03;;;;;;;14.27;8.97;;;5.70;99.90;;;;;;4807558;29;20691;-81
2023/11/12 07:27:31;;;;;;;11.47;8.53;;;5.80;99.90;;;;;;4807395;29;20218;-80
2023/11/12 07:29:58;;;;;;;13.10;9.03;;;5.90;99.90;;;;;;4791764;29;20198;-79
2023/11/12 07:32:23;;;;;;;10.40;7.97;;;5.90;99.90;;;;;;4807710;29;20233;-79
2023/11/12 07:34:49;;;;;;;12.73;8.93;;;6.00;99.90;;;;;;4807468;29;20684;-79
2023/11/12 07:37:15;;;;;;;10.40;8.30;;;6.10;99.90;;;;;;4807280;29;20273;-80
2023/11/12 07:39:41;;;;;;;10.93;8.67;;;6.10;99.90;;;;;;4807373;29;20198;-80
2023/11/12 07:42:07;;;;;;;10.50;8.57;;;6.10;99.90;;;;;;4807342;29;20537;-79
2023/11/12 07:44:41;;;;;;;9.57;8.00;;;6.20;99.90;;;;;;5084332;28;20569;-82
2023/11/12 07:47:07;;;;;;;11.67;8.47;;;6.10;99.90;;;;;;5090561;28;20222;-82
2023/11/12 07:49:33;;;;;;;11.03;9.20;;;6.10;99.90;;;;;;5090607;28;20546;-83
2023/11/12 07:51:58;;;;;;;12.20;8.37;;;6.20;99.90;;;;;;5088195;28;20180;-81
2023/11/12 07:54:26;;;;;;;10.80;7.57;;;6.30;99.90;;;;;;5090758;28;20195;-82
2023/11/12 07:56:51;;;;;;;10.07;7.90;;;6.30;99.90;;;;;;5091083;28;20271;-84
2023/11/12 07:59:18;;;;;;;13.13;7.70;;;6.40;99.90;;;;;;5090248;28;20560;-84
2023/11/12 08:01:47;;;;;;;10.93;8.07;;;6.50;99.90;;;;;;5090792;28;20176;-82
2023/11/12 08:04:13;;;;;;;13.10;7.87;;;6.40;99.90;;;;;;5083651;28;20686;-82
2023/11/12 08:06:39;;;;;;;12.77;8.03;;;6.50;99.90;;;;;;5089229;28;20188;-81
2023/11/12 08:09:06;;;;;;;11.50;7.60;;;6.60;99.90;;;;;;5086032;28;20696;-80
2023/11/12 08:11:41;;;;;;;9.67;7.07;;;6.60;99.90;;;;;;5082306;28;20212;-81
2023/11/12 08:14:08;;;;;;;9.37;7.17;;;6.60;99.90;;;;;;5090736;28;20267;-80
2023/11/12 08:16:34;;;;;;;9.47;7.23;;;6.70;99.90;;;;;;5080168;28;20182;-81
2023/11/12 08:19:01;;;;;;;7.33;6.23;;;6.70;99.90;;;;;;5086402;28;20274;-81
2023/11/12 08:21:26;;;;;;;8.53;6.00;;;6.70;99.90;;;;;;5088728;28;20177;-81
2023/11/12 08:23:52;;;;;;;8.90;6.20;;;6.70;99.90;;;;;;5084751;28;20220;-81
2023/11/12 08:26:18;;;;;;;7.05;6.25;;;6.70;99.90;;;;;;5086551;28;20169;-81
2023/11/12 08:28:43;;;;;;;9.73;5.77;;;6.70;99.90;;;;;;5080825;28;20287;-81
2023/11/12 08:31:09;;;;;;;7.63;6.10;;;6.70;99.90;;;;;;5088877;28;20185;-82
2023/11/12 08:33:35;;;;;;;10.70;5.97;;;6.70;99.90;;;;;;5089875;28;20193;-81
2023/11/12 08:36:01;;;;;;;8.57;5.70;;;6.70;99.90;;;;;;5084083;28;20189;-81
2023/11/12 08:38:27;;;;;;;7.50;5.57;;;6.70;99.90;;;;;;5089822;28;20622;-82
2023/11/12 08:40:53;;;;;;;12.80;5.93;;;6.70;99.90;;;;;;5085651;28;20615;-82
2023/11/12 08:43:18;;;;;;;7.37;6.10;;;6.70;99.90;;;;;;5089599;28;20255;-83
2023/11/12 08:45:44;;;;;;;7.33;5.80;;;6.80;99.90;;;;;;5087982;28;20181;-82
2023/11/12 08:48:10;;;;;;;10.73;6.13;;;6.80;99.90;;;;;;5089483;28;20203;-82
2023/11/12 08:50:36;;;;;;;11.77;6.57;;;6.90;99.90;;;;;;5089100;28;20173;-81
2023/11/12 08:53:02;;;;;;;10.60;5.90;;;6.90;99.90;;;;;;5085166;28;20680;-81
2023/11/12 08:55:28;;;;;;;6.90;5.90;;;6.90;99.90;;;;;;5079315;28;20234;-81
2023/11/12 08:57:54;;;;;;;9.23;5.87;;;6.90;99.90;;;;;;5068578;28;20185;-82
2023/11/12 09:00:19;;;;;;;10.47;6.03;;;7.00;99.90;;;;;;5074873;28;20184;-82
2023/11/12 09:02:46;;;;;;;7.70;6.03;;;7.00;99.90;;;;;;5070479;28;20289;-81
2023/11/12 09:05:12;;;;;;;9.70;5.93;;;7.10;99.90;;;;;;5075681;28;20189;-82
2023/11/12 09:07:38;;;;;;;7.20;5.50;;;7.10;99.90;;;;;;5075903;28;20173;-82
2023/11/12 09:10:05;;;;;;;9.20;5.43;;;7.10;99.90;;;;;;5074681;28;20263;-82
2023/11/12 09:12:31;;;;;;;10.43;5.70;;;7.20;99.90;;;;;;5075655;28;20188;-82
2023/11/12 09:14:57;;;;;;;8.57;5.33;;;7.20;99.90;;;;;;5074681;28;20654;-82
2023/11/12 09:17:23;;;;;;;7.30;5.33;;;7.20;99.90;;;;;;5075191;28;20173;-83
2023/11/12 09:19:49;;;;;;;6.30;5.22;;;7.30;99.90;;;;;;5075742;28;20216;-83
2023/11/12 09:22:15;;;;;;;12.53;5.63;;;7.30;99.90;;;;;;5075666;28;20241;-83
2023/11/12 09:24:45;;;;;;;7.57;5.57;;;7.30;99.90;;;;;;5075817;28;20621;-81
2023/11/12 09:27:11;;;;;;;7.65;5.32;;;7.30;99.90;;;;;;5064956;28;20618;-82
2023/11/12 09:29:37;;;;;;;8.73;5.57;;;7.40;99.90;;;;;;5075653;28;20215;-82
2023/11/12 09:32:06;;;;;;;8.80;5.50;;;7.40;99.90;;;;;;5070123;28;20220;-83
2023/11/12 09:34:32;;;;;;;9.17;5.27;;;7.40;99.90;;;;;;5059067;28;20173;-82
2023/11/12 09:36:57;;;;;;;8.13;5.05;;;7.50;99.90;;;;;;5075271;28;20185;-82
2023/11/12 09:39:23;;;;;;;14.57;6.30;;;7.50;99.90;;;;;;5074849;28;20180;-82
2023/11/12 09:41:53;;;;;;;6.70;5.13;;;7.50;99.90;;;;;;5075386;28;20188;-82
2023/11/12 09:44:21;;;;;;;8.20;5.43;;;7.50;99.90;;;;;;5073763;28;20244;-82
2023/11/12 09:47:15;;;;;;;8.68;5.10;;;7.60;99.90;;;;;;5074484;28;20185;-82
2023/11/12 09:49:42;;;;;;;6.55;5.07;;;7.60;99.90;;;;;;5043457;28;20193;-82
2023/11/12 09:52:07;;;;;;;6.43;5.03;;;7.70;99.90;;;;;;5075176;28;20255;-82
2023/11/12 09:54:39;;;;;;;9.23;5.23;;;7.70;99.90;;;;;;5073706;28;20592;-83
2023/11/12 09:57:06;;;;;;;8.73;5.20;;;7.70;99.90;;;;;;5065078;28;20192;-82
2023/11/12 09:59:32;;;;;;;12.37;5.60;;;7.70;99.90;;;;;;5074577;28;20202;-82
2023/11/12 10:01:58;;;;;;;7.43;5.30;;;7.70;99.90;;;;;;5074861;28;20260;-82
2023/11/12 10:04:24;;;;;;;7.73;5.30;;;7.80;99.90;;;;;;5074855;28;20555;-83
2023/11/12 10:06:50;;;;;;;11.13;5.53;;;7.80;99.90;;;;;;5073770;28;20642;-83
2023/11/12 10:09:37;;;;;;;9.83;6.67;;;7.80;99.90;;;;;;5074787;28;20185;-82
2023/11/12 10:12:06;;;;;;;9.33;6.07;;;7.80;99.90;;;;;;5074675;28;20174;-83
2023/11/12 10:14:33;;;;;;;11.13;6.57;;;7.80;99.90;;;;;;5074506;28;20204;-83
2023/11/12 10:17:05;;;;;;;10.70;6.00;;;7.80;99.90;;;;;;5074355;28;20177;-83
2023/11/12 10:19:31;;;;;;;9.77;5.93;;;7.80;99.90;;;;;;5074705;28;20181;-83
2023/11/12 10:22:03;;;;;;;6.22;5.13;;;7.80;99.90;;;;;;5074547;28;20177;-83
2023/11/12 10:24:30;;;;;;;8.40;5.90;;;7.90;99.90;;;;;;5074211;28;20220;-82
2023/11/12 10:27:04;;;;;;;10.32;5.63;;;7.90;99.90;;;;;;5064908;28;20506;-83
2023/11/12 10:29:31;;;;;;;10.50;5.53;;;8.00;99.90;;;;;;5074368;28;20242;-83
2023/11/12 10:31:57;;;;;;;10.85;5.53;;;8.10;99.90;;;;;;5069564;28;20824;-83
2023/11/12 10:34:27;;;;;;;13.43;5.53;;;8.10;99.90;;;;;;5071505;28;20177;-83
2023/11/12 10:37:24;;;;;;;8.57;4.90;;;8.20;99.90;;;;;;5073766;28;20238;-82
2023/11/12 10:39:50;;;;;;;8.67;5.30;;;8.10;99.90;;;;;;5073061;28;20181;-83
2023/11/12 10:42:25;;;;;;;8.43;5.65;;;8.20;99.90;;;;;;5072629;28;20192;-83
2023/11/12 10:44:54;;;;;;;12.13;5.72;;;8.20;99.90;;;;;;5074092;28;20238;-82
2023/11/12 10:47:23;;;;;;;6.33;4.57;;;8.20;99.90;;;;;;5073409;28;20260;-83
2023/11/12 10:49:50;;;;;;;7.20;4.70;;;8.30;99.90;;;;;;5072734;28;20185;-83
2023/11/12 10:52:16;;;;;;;7.38;4.75;;;8.30;99.90;;;;;;5072659;28;20185;-83
2023/11/12 10:54:44;;;;;;;7.53;4.97;;;8.30;99.90;;;;;;5074122;28;20177;-86
2023/11/12 10:57:12;;;;;;;5.40;4.40;;;8.30;99.90;;;;;;5072400;28;20283;-84
2023/11/12 10:59:40;;;;;;;7.07;4.03;;;8.30;99.90;;;;;;5072648;28;20203;-83
2023/11/12 11:02:17;;;;;;;5.40;4.13;;;8.30;99.90;;;;;;5067465;28;20228;-83
2023/11/12 11:04:47;;;;;;;6.43;4.35;;;8.30;99.90;;;;;;5060344;28;20189;-84
2023/11/12 11:07:14;;;;;;;7.00;4.80;;;8.20;99.90;;;;;;5073222;28;20516;-83
2023/11/12 11:09:43;;;;;;;7.70;4.50;;;8.30;99.90;;;;;;5072469;28;20635;-83
2023/11/12 11:12:11;;;;;;;8.85;4.18;;;8.30;99.90;;;;;;5072141;28;20211;-83
2023/11/12 11:14:37;;;;;;;5.33;3.77;;;8.30;99.90;;;;;;5073462;28;20268;-83
2023/11/12 11:17:05;;;;;;;8.18;4.53;;;8.40;99.90;;;;;;5072166;28;20193;-83
2023/11/12 11:19:43;;;;;;;7.75;4.78;;;8.40;99.90;;;;;;5073427;28;20608;-83
2023/11/12 11:22:29;;;;;;;6.60;3.92;;;8.50;99.90;;;;;;5068016;28;20256;-84
2023/11/12 11:25:22;;;;;;;7.00;3.55;;;8.50;99.90;;;;;;5073844;28;20246;-83
2023/11/12 11:27:50;;;;;;;5.60;3.95;;;8.50;99.90;;;;;;5064404;28;20185;-84
2023/11/12 11:30:16;;;;;;;6.60;3.50;;;8.60;99.90;;;;;;5072143;28;20192;-83
2023/11/12 11:32:54;;;;;;;4.97;3.83;;;8.60;99.90;;;;;;5071074;28;20635;-83
2023/11/12 11:35:21;;;;;;;7.88;3.67;;;8.70;99.90;;;;;;5069976;28;20184;-84
2023/11/12 11:38:06;;;;;;;10.57;3.83;;;8.70;99.90;;;;;;5072064;28;20181;-83
2023/11/12 11:40:32;;;;;;;6.53;3.38;;;8.70;99.90;;;;;;5072110;28;20192;-84
2023/11/12 11:43:23;;;;;;;5.25;3.10;;;8.70;99.90;;;;;;5073145;28;20233;-84
2023/11/12 11:46:09;;;;;;;8.63;3.25;;;8.60;99.90;;;;;;5069207;28;20264;-84
2023/11/12 11:48:36;;;;;;;5.05;3.40;;;8.70;99.90;;;;;;5070649;28;20230;-84
2023/11/12 11:51:27;;;;;;;6.13;3.13;;;8.60;99.90;;;;;;5066387;28;20242;-85
2023/11/12 11:54:00;;;;;;;6.20;3.40;;;8.50;99.90;;;;;;5072356;28;20189;-84
2023/11/12 11:56:26;;;;;;;6.28;3.13;;;8.50;99.90;;;;;;5071671;28;20181;-84
2023/11/12 11:58:53;;;;;;;6.83;3.10;;;8.40;99.90;;;;;;5071187;28;20199;-84
2023/11/12 12:01:19;;;;;;;5.88;3.40;;;8.50;99.90;;;;;;5057256;28;20308;-83
2023/11/12 12:03:45;;;;;;;4.65;3.65;;;8.50;99.90;;;;;;5071718;28;20218;-85
2023/11/12 12:06:15;;;;;;;5.35;3.60;;;8.60;99.90;;;;;;5069482;28;20181;-84
2023/11/12 12:08:52;;;;;;;6.18;3.80;;;8.60;99.90;;;;;;5050875;28;20236;-84
2023/11/12 12:11:20;;;;;;;7.15;4.00;;;8.60;99.90;;;;;;5053256;28;20184;-84
2023/11/12 12:13:59;;;;;;;5.05;3.85;;;8.70;99.90;;;;;;5066663;28;20643;-85
2023/11/12 12:16:30;;;;;;;4.75;3.70;;;8.70;99.90;;;;;;5071842;28;20617;-85
2023/11/12 12:18:56;;;;;;;5.18;3.78;;;8.70;99.90;;;;;;5072335;28;20184;-85
2023/11/12 12:21:22;;;;;;;5.95;3.47;;;8.70;99.90;;;;;;5065115;28;20264;-85
2023/11/12 12:23:49;;;;;;;5.25;3.13;;;8.70;99.90;;;;;;5060406;28;20245;-85
2023/11/12 12:26:15;;;;;;;9.20;3.78;;;8.70;99.90;;;;;;5072608;28;20268;-84
2023/11/12 12:28:44;;;;;;;4.97;3.60;;;8.70;99.90;;;;;;5071358;28;20272;-85
2023/11/12 12:31:10;;;;;;;5.47;3.10;;;8.70;99.90;;;;;;5075080;28;20554;-84
2023/11/12 12:33:37;;;;;;;5.93;3.20;;;8.70;99.90;;;;;;5061701;28;20192;-84
2023/11/12 12:36:16;;;;;;;3.90;3.13;;;8.70;99.90;;;;;;5074700;28;20260;-84
2023/11/12 12:39:20;;;;;;;6.28;3.28;;;8.70;99.90;;;;;;5067717;28;20189;-85
2023/11/12 12:41:46;;;;;;;3.03;2.67;;;8.70;99.90;;;;;;5076732;28;20203;-85
2023/11/12 12:44:22;;;;;;;4.07;3.03;;;8.60;99.90;;;;;;5076127;28;20391;-86
2023/11/12 12:46:51;;;;;;;6.25;3.63;;;8.60;99.90;;;;;;5062085;28;20189;-84
2023/11/12 12:49:33;;;;;;;7.95;3.60;;;8.60;99.90;;;;;;5055972;28;20616;-84